Manhattan, Nevada
Current Conditions -  °F | °C
As of 4:56 PM on Sunday 23 Nov 2014 (Local Time) from KTPH Reporting Station
Clear Clear  
Wind Chill: 37°   Ceiling: Unl
Heat Index: 43°   Visibility: 10mi
Dew Point: 10°   Wind: 10mph
Humidity: 26%   Direction: 340°NNW
Pressure: 30.26"   Gusts: NA
Location:  38.54°N, 117.07°W
Report Text: KTPH 240056Z AUTO 34009KT 10SM CLR 06/M12 A3026 RMK AO2 SLP247 T00611122
Loading
Personal Weather Stations






























Interactive Weather Map New forecast layout! Learn more

10-Day Weather Forecast

Advertisements
Track Severe Weather on mobile